sensor_id;sensor_type;location;lat;lon;timestamp;P1;durP1;ratioP1;P2;durP2;ratioP2
22644;SDS011;11489;50.834;6.752;2022-12-29T00:01:32;0.45;;;0.30;;
22644;SDS011;11489;50.834;6.752;2022-12-29T00:03:58;0.30;;;0.28;;
22644;SDS011;11489;50.834;6.752;2022-12-29T00:06:24;0.30;;;0.30;;
22644;SDS011;11489;50.834;6.752;2022-12-29T00:08:50;0.25;;;0.22;;
22644;SDS011;11489;50.834;6.752;2022-12-29T00:11:17;0.20;;;0.20;;
22644;SDS011;11489;50.834;6.752;2022-12-29T00:13:48;0.85;;;0.20;;
22644;SDS011;11489;50.834;6.752;2022-12-29T00:16:33;0.40;;;0.20;;
22644;SDS011;11489;50.834;6.752;2022-12-29T00:19:00;0.20;;;0.20;;
22644;SDS011;11489;50.834;6.752;2022-12-29T00:21:27;0.30;;;0.30;;
22644;SDS011;11489;50.834;6.752;2022-12-29T00:24:15;1.23;;;0.20;;
22644;SDS011;11489;50.834;6.752;2022-12-29T00:29:50;0.95;;;0.50;;
22644;SDS011;11489;50.834;6.752;2022-12-29T00:32:35;0.20;;;0.20;;
22644;SDS011;11489;50.834;6.752;2022-12-29T00:38:02;0.20;;;0.20;;
22644;SDS011;11489;50.834;6.752;2022-12-29T00:40:48;0.20;;;0.20;;
22644;SDS011;11489;50.834;6.752;2022-12-29T00:43:33;0.20;;;0.20;;
22644;SDS011;11489;50.834;6.752;2022-12-29T00:46:17;0.15;;;0.15;;
22644;SDS011;11489;50.834;6.752;2022-12-29T00:48:43;0.20;;;0.20;;
22644;SDS011;11489;50.834;6.752;2022-12-29T00:51:27;0.20;;;0.20;;
22644;SDS011;11489;50.834;6.752;2022-12-29T00:53:53;0.52;;;0.30;;
22644;SDS011;11489;50.834;6.752;2022-12-29T00:56:19;0.20;;;0.20;;
22644;SDS011;11489;50.834;6.752;2022-12-29T00:58:44;0.20;;;0.20;;
22644;SDS011;11489;50.834;6.752;2022-12-29T01:01:10;0.20;;;0.20;;
22644;SDS011;11489;50.834;6.752;2022-12-29T01:03:36;0.20;;;0.20;;
22644;SDS011;11489;50.834;6.752;2022-12-29T01:06:04;0.20;;;0.20;;
22644;SDS011;11489;50.834;6.752;2022-12-29T01:08:34;0.10;;;0.10;;
22644;SDS011;11489;50.834;6.752;2022-12-29T01:13:28;0.30;;;0.30;;
22644;SDS011;11489;50.834;6.752;2022-12-29T01:15:54;0.22;;;0.20;;
22644;SDS011;11489;50.834;6.752;2022-12-29T01:18:20;0.30;;;0.30;;
22644;SDS011;11489;50.834;6.752;2022-12-29T01:20:46;0.40;;;0.30;;
22644;SDS011;11489;50.834;6.752;2022-12-29T01:23:12;0.40;;;0.20;;
22644;SDS011;11489;50.834;6.752;2022-12-29T01:25:37;0.20;;;0.20;;
22644;SDS011;11489;50.834;6.752;2022-12-29T01:28:03;0.30;;;0.30;;
22644;SDS011;11489;50.834;6.752;2022-12-29T01:30:29;0.32;;;0.32;;
22644;SDS011;11489;50.834;6.752;2022-12-29T01:32:55;1.23;;;0.30;;
22644;SDS011;11489;50.834;6.752;2022-12-29T01:35:20;0.30;;;0.30;;
22644;SDS011;11489;50.834;6.752;2022-12-29T01:37:46;1.08;;;0.40;;
22644;SDS011;11489;50.834;6.752;2022-12-29T01:40:12;1.40;;;0.50;;
22644;SDS011;11489;50.834;6.752;2022-12-29T01:42:37;0.47;;;0.47;;
22644;SDS011;11489;50.834;6.752;2022-12-29T01:45:08;0.93;;;0.45;;
22644;SDS011;11489;50.834;6.752;2022-12-29T01:47:43;1.15;;;0.50;;
22644;SDS011;11489;50.834;6.752;2022-12-29T01:50:26;1.33;;;0.50;;
22644;SDS011;11489;50.834;6.752;2022-12-29T01:52:58;0.47;;;0.38;;
22644;SDS011;11489;50.834;6.752;2022-12-29T01:55:30;1.13;;;0.50;;
22644;SDS011;11489;50.834;6.752;2022-12-29T01:58:01;0.57;;;0.40;;
22644;SDS011;11489;50.834;6.752;2022-12-29T02:00:30;1.30;;;0.50;;
22644;SDS011;11489;50.834;6.752;2022-12-29T02:02:55;0.77;;;0.63;;
22644;SDS011;11489;50.834;6.752;2022-12-29T02:07:58;1.13;;;0.50;;
22644;SDS011;11489;50.834;6.752;2022-12-29T02:10:24;1.88;;;0.45;;
22644;SDS011;11489;50.834;6.752;2022-12-29T02:12:53;0.45;;;0.40;;
22644;SDS011;11489;50.834;6.752;2022-12-29T02:15:20;2.28;;;0.50;;
22644;SDS011;11489;50.834;6.752;2022-12-29T02:18:00;0.68;;;0.50;;
22644;SDS011;11489;50.834;6.752;2022-12-29T02:20:37;1.00;;;0.45;;
22644;SDS011;11489;50.834;6.752;2022-12-29T02:23:46;0.88;;;0.45;;
22644;SDS011;11489;50.834;6.752;2022-12-29T02:35:23;0.50;;;0.50;;
22644;SDS011;11489;50.834;6.752;2022-12-29T02:43:34;0.73;;;0.52;;
22644;SDS011;11489;50.834;6.752;2022-12-29T02:46:20;2.55;;;0.90;;
22644;SDS011;11489;50.834;6.752;2022-12-29T02:49:05;1.00;;;0.40;;
22644;SDS011;11489;50.834;6.752;2022-12-29T02:51:38;0.85;;;0.47;;
22644;SDS011;11489;50.834;6.752;2022-12-29T02:54:11;0.60;;;0.50;;
22644;SDS011;11489;50.834;6.752;2022-12-29T02:56:56;0.63;;;0.50;;
22644;SDS011;11489;50.834;6.752;2022-12-29T02:59:22;1.30;;;0.47;;
22644;SDS011;11489;50.834;6.752;2022-12-29T03:01:57;2.40;;;0.60;;
22644;SDS011;11489;50.834;6.752;2022-12-29T03:07:48;1.25;;;0.35;;
22644;SDS011;11489;50.834;6.752;2022-12-29T03:24:22;0.47;;;0.38;;
22644;SDS011;11489;50.834;6.752;2022-12-29T03:26:52;0.30;;;0.30;;
22644;SDS011;11489;50.834;6.752;2022-12-29T03:29:20;1.38;;;0.30;;
22644;SDS011;11489;50.834;6.752;2022-12-29T03:31:47;0.60;;;0.30;;
22644;SDS011;11489;50.834;6.752;2022-12-29T03:34:16;0.95;;;0.40;;
22644;SDS011;11489;50.834;6.752;2022-12-29T03:36:50;0.32;;;0.32;;
22644;SDS011;11489;50.834;6.752;2022-12-29T03:39:20;0.47;;;0.30;;
22644;SDS011;11489;50.834;6.752;2022-12-29T03:41:48;0.55;;;0.40;;
22644;SDS011;11489;50.834;6.752;2022-12-29T03:44:16;2.25;;;0.50;;
22644;SDS011;11489;50.834;6.752;2022-12-29T03:46:41;1.13;;;0.50;;
22644;SDS011;11489;50.834;6.752;2022-12-29T03:49:07;3.75;;;0.40;;
22644;SDS011;11489;50.834;6.752;2022-12-29T03:51:33;0.95;;;0.40;;
22644;SDS011;11489;50.834;6.752;2022-12-29T03:53:59;0.55;;;0.55;;
22644;SDS011;11489;50.834;6.752;2022-12-29T03:56:24;0.80;;;0.52;;
22644;SDS011;11489;50.834;6.752;2022-12-29T03:58:50;0.60;;;0.50;;
22644;SDS011;11489;50.834;6.752;2022-12-29T04:01:15;0.70;;;0.60;;
22644;SDS011;11489;50.834;6.752;2022-12-29T04:03:41;1.30;;;0.65;;
22644;SDS011;11489;50.834;6.752;2022-12-29T04:06:07;1.08;;;0.57;;
22644;SDS011;11489;50.834;6.752;2022-12-29T04:08:33;1.48;;;0.60;;
22644;SDS011;11489;50.834;6.752;2022-12-29T04:10:58;0.55;;;0.45;;
22644;SDS011;11489;50.834;6.752;2022-12-29T04:13:24;0.47;;;0.38;;
22644;SDS011;11489;50.834;6.752;2022-12-29T04:15:50;0.50;;;0.45;;
22644;SDS011;11489;50.834;6.752;2022-12-29T04:18:15;0.98;;;0.60;;
22644;SDS011;11489;50.834;6.752;2022-12-29T04:20:41;1.15;;;0.50;;
22644;SDS011;11489;50.834;6.752;2022-12-29T04:23:25;0.47;;;0.30;;
22644;SDS011;11489;50.834;6.752;2022-12-29T04:25:52;3.10;;;0.50;;
22644;SDS011;11489;50.834;6.752;2022-12-29T04:28:18;0.93;;;0.50;;
22644;SDS011;11489;50.834;6.752;2022-12-29T04:30:45;0.93;;;0.57;;
22644;SDS011;11489;50.834;6.752;2022-12-29T04:33:11;1.15;;;0.50;;
22644;SDS011;11489;50.834;6.752;2022-12-29T04:35:36;1.02;;;0.60;;
22644;SDS011;11489;50.834;6.752;2022-12-29T04:38:02;0.60;;;0.47;;
22644;SDS011;11489;50.834;6.752;2022-12-29T04:40:28;0.63;;;0.55;;
22644;SDS011;11489;50.834;6.752;2022-12-29T04:42:54;0.68;;;0.50;;
22644;SDS011;11489;50.834;6.752;2022-12-29T04:45:20;1.60;;;0.60;;
22644;SDS011;11489;50.834;6.752;2022-12-29T04:47:45;0.65;;;0.55;;
22644;SDS011;11489;50.834;6.752;2022-12-29T04:50:11;1.27;;;0.50;;
22644;SDS011;11489;50.834;6.752;2022-12-29T04:52:37;0.98;;;0.47;;
22644;SDS011;11489;50.834;6.752;2022-12-29T04:55:03;0.70;;;0.47;;
22644;SDS011;11489;50.834;6.752;2022-12-29T04:57:29;1.13;;;0.60;;
22644;SDS011;11489;50.834;6.752;2022-12-29T04:59:55;1.15;;;0.50;;
22644;SDS011;11489;50.834;6.752;2022-12-29T05:02:21;0.63;;;0.55;;
22644;SDS011;11489;50.834;6.752;2022-12-29T05:04:46;0.90;;;0.60;;
22644;SDS011;11489;50.834;6.752;2022-12-29T05:07:12;0.93;;;0.57;;
22644;SDS011;11489;50.834;6.752;2022-12-29T05:09:38;0.88;;;0.40;;
22644;SDS011;11489;50.834;6.752;2022-12-29T05:12:04;1.50;;;0.68;;
22644;SDS011;11489;50.834;6.752;2022-12-29T05:14:30;0.77;;;0.40;;
22644;SDS011;11489;50.834;6.752;2022-12-29T05:16:55;1.45;;;0.55;;
22644;SDS011;11489;50.834;6.752;2022-12-29T05:19:21;0.75;;;0.40;;
22644;SDS011;11489;50.834;6.752;2022-12-29T05:21:47;1.23;;;0.50;;
22644;SDS011;11489;50.834;6.752;2022-12-29T05:24:13;0.65;;;0.50;;
22644;SDS011;11489;50.834;6.752;2022-12-29T05:26:38;0.30;;;0.30;;
22644;SDS011;11489;50.834;6.752;2022-12-29T05:29:04;1.13;;;0.40;;
22644;SDS011;11489;50.834;6.752;2022-12-29T05:31:30;1.05;;;0.30;;
22644;SDS011;11489;50.834;6.752;2022-12-29T05:33:55;0.85;;;0.30;;
22644;SDS011;11489;50.834;6.752;2022-12-29T05:36:21;0.30;;;0.30;;
22644;SDS011;11489;50.834;6.752;2022-12-29T05:38:47;0.20;;;0.20;;
22644;SDS011;11489;50.834;6.752;2022-12-29T05:41:12;0.70;;;0.30;;
22644;SDS011;11489;50.834;6.752;2022-12-29T05:43:38;1.58;;;0.50;;
22644;SDS011;11489;50.834;6.752;2022-12-29T05:46:03;0.47;;;0.30;;
22644;SDS011;11489;50.834;6.752;2022-12-29T05:48:29;0.50;;;0.25;;
22644;SDS011;11489;50.834;6.752;2022-12-29T05:50:55;2.42;;;0.40;;
22644;SDS011;11489;50.834;6.752;2022-12-29T05:53:21;0.50;;;0.40;;
22644;SDS011;11489;50.834;6.752;2022-12-29T05:55:46;0.47;;;0.28;;
22644;SDS011;11489;50.834;6.752;2022-12-29T05:58:13;0.47;;;0.22;;
22644;SDS011;11489;50.834;6.752;2022-12-29T06:00:39;1.27;;;0.38;;
22644;SDS011;11489;50.834;6.752;2022-12-29T06:03:05;0.65;;;0.30;;
22644;SDS011;11489;50.834;6.752;2022-12-29T06:05:31;0.82;;;0.40;;
22644;SDS011;11489;50.834;6.752;2022-12-29T06:07:56;2.83;;;0.30;;
22644;SDS011;11489;50.834;6.752;2022-12-29T06:10:22;0.30;;;0.20;;
22644;SDS011;11489;50.834;6.752;2022-12-29T06:12:48;0.85;;;0.20;;
22644;SDS011;11489;50.834;6.752;2022-12-29T06:15:13;1.65;;;0.35;;
22644;SDS011;11489;50.834;6.752;2022-12-29T06:17:39;0.57;;;0.35;;
22644;SDS011;11489;50.834;6.752;2022-12-29T06:20:06;1.08;;;0.55;;
22644;SDS011;11489;50.834;6.752;2022-12-29T06:22:32;1.75;;;0.50;;
22644;SDS011;11489;50.834;6.752;2022-12-29T06:24:58;1.33;;;0.30;;
22644;SDS011;11489;50.834;6.752;2022-12-29T06:27:24;0.57;;;0.30;;
22644;SDS011;11489;50.834;6.752;2022-12-29T06:29:50;1.70;;;0.43;;
22644;SDS011;11489;50.834;6.752;2022-12-29T06:32:15;0.85;;;0.30;;
22644;SDS011;11489;50.834;6.752;2022-12-29T06:34:41;0.63;;;0.28;;
22644;SDS011;11489;50.834;6.752;2022-12-29T06:37:07;1.05;;;0.30;;
22644;SDS011;11489;50.834;6.752;2022-12-29T06:39:32;0.90;;;0.30;;
22644;SDS011;11489;50.834;6.752;2022-12-29T06:41:58;3.97;;;0.38;;
22644;SDS011;11489;50.834;6.752;2022-12-29T06:44:24;1.13;;;0.60;;
22644;SDS011;11489;50.834;6.752;2022-12-29T06:46:49;1.00;;;0.30;;
22644;SDS011;11489;50.834;6.752;2022-12-29T06:49:15;0.30;;;0.30;;
22644;SDS011;11489;50.834;6.752;2022-12-29T06:51:41;0.38;;;0.20;;
22644;SDS011;11489;50.834;6.752;2022-12-29T06:54:07;1.40;;;0.35;;
22644;SDS011;11489;50.834;6.752;2022-12-29T06:56:32;0.85;;;0.30;;
22644;SDS011;11489;50.834;6.752;2022-12-29T06:58:58;1.15;;;0.30;;
22644;SDS011;11489;50.834;6.752;2022-12-29T07:01:26;0.50;;;0.20;;
22644;SDS011;11489;50.834;6.752;2022-12-29T07:03:51;0.95;;;0.30;;
22644;SDS011;11489;50.834;6.752;2022-12-29T07:06:17;3.55;;;0.30;;
22644;SDS011;11489;50.834;6.752;2022-12-29T07:08:43;1.33;;;0.30;;
22644;SDS011;11489;50.834;6.752;2022-12-29T07:11:09;0.82;;;0.43;;
22644;SDS011;11489;50.834;6.752;2022-12-29T07:13:34;1.25;;;0.47;;
22644;SDS011;11489;50.834;6.752;2022-12-29T07:16:04;0.35;;;0.30;;
22644;SDS011;11489;50.834;6.752;2022-12-29T07:18:31;1.38;;;0.35;;
22644;SDS011;11489;50.834;6.752;2022-12-29T07:20:57;1.58;;;0.55;;
22644;SDS011;11489;50.834;6.752;2022-12-29T07:23:23;1.15;;;0.50;;
22644;SDS011;11489;50.834;6.752;2022-12-29T07:25:48;0.60;;;0.20;;
22644;SDS011;11489;50.834;6.752;2022-12-29T07:28:14;1.23;;;0.50;;
22644;SDS011;11489;50.834;6.752;2022-12-29T07:30:39;2.58;;;0.45;;
22644;SDS011;11489;50.834;6.752;2022-12-29T07:33:05;2.00;;;0.40;;
22644;SDS011;11489;50.834;6.752;2022-12-29T07:35:31;0.75;;;0.30;;
22644;SDS011;11489;50.834;6.752;2022-12-29T07:37:58;1.42;;;0.30;;
22644;SDS011;11489;50.834;6.752;2022-12-29T07:40:27;0.77;;;0.30;;
22644;SDS011;11489;50.834;6.752;2022-12-29T07:42:52;2.22;;;0.60;;
22644;SDS011;11489;50.834;6.752;2022-12-29T07:45:18;1.90;;;0.60;;
22644;SDS011;11489;50.834;6.752;2022-12-29T07:47:46;1.50;;;0.60;;
22644;SDS011;11489;50.834;6.752;2022-12-29T07:50:13;2.22;;;0.40;;
22644;SDS011;11489;50.834;6.752;2022-12-29T07:52:39;4.53;;;0.50;;
22644;SDS011;11489;50.834;6.752;2022-12-29T07:55:04;4.13;;;0.55;;
22644;SDS011;11489;50.834;6.752;2022-12-29T07:57:30;3.63;;;0.68;;
22644;SDS011;11489;50.834;6.752;2022-12-29T07:59:56;1.38;;;0.60;;
22644;SDS011;11489;50.834;6.752;2022-12-29T08:02:21;2.85;;;0.40;;
22644;SDS011;11489;50.834;6.752;2022-12-29T08:04:47;4.63;;;0.77;;
22644;SDS011;11489;50.834;6.752;2022-12-29T08:07:13;3.95;;;0.60;;
22644;SDS011;11489;50.834;6.752;2022-12-29T08:09:38;2.22;;;0.60;;
22644;SDS011;11489;50.834;6.752;2022-12-29T08:12:04;3.33;;;0.60;;
22644;SDS011;11489;50.834;6.752;2022-12-29T08:14:30;3.40;;;0.60;;
22644;SDS011;11489;50.834;6.752;2022-12-29T08:16:55;2.55;;;0.80;;
22644;SDS011;11489;50.834;6.752;2022-12-29T08:19:21;2.78;;;0.80;;
22644;SDS011;11489;50.834;6.752;2022-12-29T08:21:47;3.63;;;0.82;;
22644;SDS011;11489;50.834;6.752;2022-12-29T08:24:12;4.88;;;1.20;;
22644;SDS011;11489;50.834;6.752;2022-12-29T08:26:38;3.63;;;0.65;;
22644;SDS011;11489;50.834;6.752;2022-12-29T08:29:04;2.65;;;0.60;;
22644;SDS011;11489;50.834;6.752;2022-12-29T08:31:29;1.65;;;0.70;;
22644;SDS011;11489;50.834;6.752;2022-12-29T08:33:55;5.63;;;0.95;;
22644;SDS011;11489;50.834;6.752;2022-12-29T08:36:21;2.47;;;0.68;;
22644;SDS011;11489;50.834;6.752;2022-12-29T08:38:46;4.45;;;0.75;;
22644;SDS011;11489;50.834;6.752;2022-12-29T08:41:12;2.78;;;0.65;;
22644;SDS011;11489;50.834;6.752;2022-12-29T08:43:37;5.13;;;0.90;;
22644;SDS011;11489;50.834;6.752;2022-12-29T08:46:03;2.95;;;0.73;;
22644;SDS011;11489;50.834;6.752;2022-12-29T08:48:29;2.42;;;0.57;;
22644;SDS011;11489;50.834;6.752;2022-12-29T08:50:54;6.68;;;0.90;;
22644;SDS011;11489;50.834;6.752;2022-12-29T08:53:20;3.17;;;0.75;;
22644;SDS011;11489;50.834;6.752;2022-12-29T08:55:46;1.38;;;0.65;;
22644;SDS011;11489;50.834;6.752;2022-12-29T08:58:19;3.95;;;0.70;;
22644;SDS011;11489;50.834;6.752;2022-12-29T09:00:44;2.55;;;0.60;;
22644;SDS011;11489;50.834;6.752;2022-12-29T09:03:10;4.43;;;0.80;;
22644;SDS011;11489;50.834;6.752;2022-12-29T09:05:36;5.00;;;0.68;;
22644;SDS011;11489;50.834;6.752;2022-12-29T09:08:01;3.08;;;0.65;;
22644;SDS011;11489;50.834;6.752;2022-12-29T09:10:27;3.08;;;0.65;;
22644;SDS011;11489;50.834;6.752;2022-12-29T09:12:53;3.97;;;0.60;;
22644;SDS011;11489;50.834;6.752;2022-12-29T09:15:19;6.03;;;1.02;;
22644;SDS011;11489;50.834;6.752;2022-12-29T09:17:44;6.05;;;0.88;;
22644;SDS011;11489;50.834;6.752;2022-12-29T09:20:11;4.90;;;1.00;;
22644;SDS011;11489;50.834;6.752;2022-12-29T09:22:38;4.28;;;0.68;;
22644;SDS011;11489;50.834;6.752;2022-12-29T09:25:04;2.90;;;0.70;;
22644;SDS011;11489;50.834;6.752;2022-12-29T09:27:30;6.85;;;0.88;;
22644;SDS011;11489;50.834;6.752;2022-12-29T09:29:56;1.67;;;0.50;;
22644;SDS011;11489;50.834;6.752;2022-12-29T09:32:22;5.57;;;1.00;;
22644;SDS011;11489;50.834;6.752;2022-12-29T09:34:47;3.60;;;0.90;;
22644;SDS011;11489;50.834;6.752;2022-12-29T09:37:13;5.15;;;1.15;;
22644;SDS011;11489;50.834;6.752;2022-12-29T09:39:38;4.32;;;1.08;;
22644;SDS011;11489;50.834;6.752;2022-12-29T09:47:35;3.03;;;0.77;;
22644;SDS011;11489;50.834;6.752;2022-12-29T09:50:03;4.10;;;0.60;;
22644;SDS011;11489;50.834;6.752;2022-12-29T09:52:37;2.47;;;0.70;;
22644;SDS011;11489;50.834;6.752;2022-12-29T09:55:36;5.03;;;0.85;;
22644;SDS011;11489;50.834;6.752;2022-12-29T09:58:14;2.40;;;0.80;;
22644;SDS011;11489;50.834;6.752;2022-12-29T10:04:14;3.70;;;1.05;;
22644;SDS011;11489;50.834;6.752;2022-12-29T10:06:22;5.18;;;1.20;;
22644;SDS011;11489;50.834;6.752;2022-12-29T10:11:46;5.22;;;0.70;;
22644;SDS011;11489;50.834;6.752;2022-12-29T10:14:42;4.13;;;0.70;;
22644;SDS011;11489;50.834;6.752;2022-12-29T10:20:14;4.70;;;1.30;;
22644;SDS011;11489;50.834;6.752;2022-12-29T10:25:38;2.03;;;0.75;;
22644;SDS011;11489;50.834;6.752;2022-12-29T10:28:10;4.43;;;0.77;;
22644;SDS011;11489;50.834;6.752;2022-12-29T10:30:45;3.45;;;0.60;;
22644;SDS011;11489;50.834;6.752;2022-12-29T10:33:15;3.00;;;0.90;;
22644;SDS011;11489;50.834;6.752;2022-12-29T10:35:44;3.38;;;0.75;;
22644;SDS011;11489;50.834;6.752;2022-12-29T10:38:12;1.98;;;0.60;;
22644;SDS011;11489;50.834;6.752;2022-12-29T10:41:07;3.90;;;0.70;;
22644;SDS011;11489;50.834;6.752;2022-12-29T10:46:11;6.30;;;1.23;;
22644;SDS011;11489;50.834;6.752;2022-12-29T10:48:39;3.70;;;0.88;;
22644;SDS011;11489;50.834;6.752;2022-12-29T10:51:05;3.13;;;0.68;;
22644;SDS011;11489;50.834;6.752;2022-12-29T10:53:43;3.42;;;0.80;;
22644;SDS011;11489;50.834;6.752;2022-12-29T10:56:17;3.33;;;0.70;;
22644;SDS011;11489;50.834;6.752;2022-12-29T10:59:00;4.38;;;1.00;;
22644;SDS011;11489;50.834;6.752;2022-12-29T11:07:27;4.80;;;0.75;;
22644;SDS011;11489;50.834;6.752;2022-12-29T11:09:53;3.25;;;0.73;;
22644;SDS011;11489;50.834;6.752;2022-12-29T11:12:26;3.15;;;0.80;;
22644;SDS011;11489;50.834;6.752;2022-12-29T11:17:42;2.60;;;0.60;;
22644;SDS011;11489;50.834;6.752;2022-12-29T11:22:53;4.95;;;0.90;;
22644;SDS011;11489;50.834;6.752;2022-12-29T11:25:19;3.28;;;0.82;;
22644;SDS011;11489;50.834;6.752;2022-12-29T11:27:54;4.70;;;1.00;;
22644;SDS011;11489;50.834;6.752;2022-12-29T11:30:24;2.80;;;0.70;;
22644;SDS011;11489;50.834;6.752;2022-12-29T11:32:53;3.45;;;0.77;;
22644;SDS011;11489;50.834;6.752;2022-12-29T11:35:32;2.97;;;0.90;;
22644;SDS011;11489;50.834;6.752;2022-12-29T11:38:04;4.03;;;1.05;;
22644;SDS011;11489;50.834;6.752;2022-12-29T11:40:30;3.08;;;0.70;;
22644;SDS011;11489;50.834;6.752;2022-12-29T11:43:02;1.90;;;0.60;;
22644;SDS011;11489;50.834;6.752;2022-12-29T11:45:35;5.00;;;0.80;;
22644;SDS011;11489;50.834;6.752;2022-12-29T11:48:09;5.03;;;0.75;;
22644;SDS011;11489;50.834;6.752;2022-12-29T11:50:42;4.43;;;0.90;;
22644;SDS011;11489;50.834;6.752;2022-12-29T11:53:15;5.38;;;0.68;;
22644;SDS011;11489;50.834;6.752;2022-12-29T11:55:56;3.35;;;0.68;;
22644;SDS011;11489;50.834;6.752;2022-12-29T11:58:31;3.83;;;1.00;;
22644;SDS011;11489;50.834;6.752;2022-12-29T12:01:17;3.58;;;0.73;;
22644;SDS011;11489;50.834;6.752;2022-12-29T12:04:01;4.28;;;1.02;;
22644;SDS011;11489;50.834;6.752;2022-12-29T12:06:41;4.95;;;0.70;;
22644;SDS011;11489;50.834;6.752;2022-12-29T12:09:23;3.50;;;0.80;;
22644;SDS011;11489;50.834;6.752;2022-12-29T12:11:54;4.68;;;1.10;;
22644;SDS011;11489;50.834;6.752;2022-12-29T12:14:21;3.17;;;0.80;;
22644;SDS011;11489;50.834;6.752;2022-12-29T12:16:54;5.50;;;0.98;;
22644;SDS011;11489;50.834;6.752;2022-12-29T12:22:36;4.53;;;1.05;;
22644;SDS011;11489;50.834;6.752;2022-12-29T12:25:18;2.33;;;0.77;;
22644;SDS011;11489;50.834;6.752;2022-12-29T12:30:43;3.92;;;0.88;;
22644;SDS011;11489;50.834;6.752;2022-12-29T12:43:36;3.17;;;0.88;;
22644;SDS011;11489;50.834;6.752;2022-12-29T12:48:55;4.30;;;0.80;;
22644;SDS011;11489;50.834;6.752;2022-12-29T12:51:54;2.78;;;0.80;;
22644;SDS011;11489;50.834;6.752;2022-12-29T13:00:15;4.28;;;0.60;;
22644;SDS011;11489;50.834;6.752;2022-12-29T13:08:23;2.42;;;0.60;;
22644;SDS011;11489;50.834;6.752;2022-12-29T13:13:45;4.53;;;1.15;;
22644;SDS011;11489;50.834;6.752;2022-12-29T13:16:38;4.07;;;0.95;;
22644;SDS011;11489;50.834;6.752;2022-12-29T13:19:42;2.28;;;0.70;;
22644;SDS011;11489;50.834;6.752;2022-12-29T13:22:23;4.55;;;0.80;;
22644;SDS011;11489;50.834;6.752;2022-12-29T13:27:53;4.57;;;0.90;;
22644;SDS011;11489;50.834;6.752;2022-12-29T13:31:04;4.97;;;0.98;;
22644;SDS011;11489;50.834;6.752;2022-12-29T13:33:35;2.28;;;0.70;;
22644;SDS011;11489;50.834;6.752;2022-12-29T13:36:05;4.45;;;1.00;;
22644;SDS011;11489;50.834;6.752;2022-12-29T13:38:47;2.53;;;0.70;;
22644;SDS011;11489;50.834;6.752;2022-12-29T13:41:33;4.57;;;0.77;;
22644;SDS011;11489;50.834;6.752;2022-12-29T13:44:04;5.13;;;0.75;;
22644;SDS011;11489;50.834;6.752;2022-12-29T13:46:42;4.45;;;1.00;;
22644;SDS011;11489;50.834;6.752;2022-12-29T13:49:20;4.60;;;1.00;;
22644;SDS011;11489;50.834;6.752;2022-12-29T13:54:40;7.55;;;1.13;;
22644;SDS011;11489;50.834;6.752;2022-12-29T14:00:04;3.80;;;1.10;;
22644;SDS011;11489;50.834;6.752;2022-12-29T14:08:17;7.05;;;1.02;;
22644;SDS011;11489;50.834;6.752;2022-12-29T14:10:47;3.85;;;1.10;;
22644;SDS011;11489;50.834;6.752;2022-12-29T14:13:21;5.03;;;0.93;;
22644;SDS011;11489;50.834;6.752;2022-12-29T14:15:50;6.18;;;1.40;;
22644;SDS011;11489;50.834;6.752;2022-12-29T14:18:19;5.05;;;0.80;;
22644;SDS011;11489;50.834;6.752;2022-12-29T14:20:57;3.50;;;0.80;;
22644;SDS011;11489;50.834;6.752;2022-12-29T14:23:39;5.95;;;1.23;;
22644;SDS011;11489;50.834;6.752;2022-12-29T14:26:12;5.10;;;1.20;;
22644;SDS011;11489;50.834;6.752;2022-12-29T14:28:41;3.90;;;1.00;;
22644;SDS011;11489;50.834;6.752;2022-12-29T14:33:40;3.20;;;0.88;;
22644;SDS011;11489;50.834;6.752;2022-12-29T14:36:33;4.43;;;0.70;;
22644;SDS011;11489;50.834;6.752;2022-12-29T14:39:00;5.63;;;0.88;;
22644;SDS011;11489;50.834;6.752;2022-12-29T14:41:30;5.13;;;0.90;;
22644;SDS011;11489;50.834;6.752;2022-12-29T14:44:24;4.35;;;1.08;;
22644;SDS011;11489;50.834;6.752;2022-12-29T14:49:21;6.00;;;0.93;;
22644;SDS011;11489;50.834;6.752;2022-12-29T14:51:53;4.30;;;1.50;;
22644;SDS011;11489;50.834;6.752;2022-12-29T14:56:59;8.50;;;1.30;;
22644;SDS011;11489;50.834;6.752;2022-12-29T14:59:27;4.07;;;0.90;;
22644;SDS011;11489;50.834;6.752;2022-12-29T15:01:54;5.63;;;1.00;;
22644;SDS011;11489;50.834;6.752;2022-12-29T15:04:22;4.72;;;0.88;;
22644;SDS011;11489;50.834;6.752;2022-12-29T15:06:52;7.85;;;1.02;;
22644;SDS011;11489;50.834;6.752;2022-12-29T15:09:30;5.57;;;1.25;;
22644;SDS011;11489;50.834;6.752;2022-12-29T15:14:58;5.63;;;1.13;;
22644;SDS011;11489;50.834;6.752;2022-12-29T15:19:52;7.50;;;1.10;;
22644;SDS011;11489;50.834;6.752;2022-12-29T15:22:19;5.60;;;1.15;;
22644;SDS011;11489;50.834;6.752;2022-12-29T15:24:46;6.40;;;1.10;;
22644;SDS011;11489;50.834;6.752;2022-12-29T15:27:13;5.90;;;1.00;;
22644;SDS011;11489;50.834;6.752;2022-12-29T15:29:41;4.70;;;1.50;;
22644;SDS011;11489;50.834;6.752;2022-12-29T15:34:40;9.55;;;1.33;;
22644;SDS011;11489;50.834;6.752;2022-12-29T15:37:06;7.95;;;1.27;;
22644;SDS011;11489;50.834;6.752;2022-12-29T15:39:32;5.13;;;1.42;;
22644;SDS011;11489;50.834;6.752;2022-12-29T15:42:03;5.05;;;1.35;;
22644;SDS011;11489;50.834;6.752;2022-12-29T15:44:41;7.03;;;1.25;;
22644;SDS011;11489;50.834;6.752;2022-12-29T15:47:14;5.80;;;1.25;;
22644;SDS011;11489;50.834;6.752;2022-12-29T15:49:43;8.95;;;1.15;;
22644;SDS011;11489;50.834;6.752;2022-12-29T15:52:09;3.78;;;1.02;;
22644;SDS011;11489;50.834;6.752;2022-12-29T15:54:36;5.80;;;1.20;;
22644;SDS011;11489;50.834;6.752;2022-12-29T15:57:03;4.13;;;1.42;;
22644;SDS011;11489;50.834;6.752;2022-12-29T15:59:30;7.20;;;1.30;;
22644;SDS011;11489;50.834;6.752;2022-12-29T16:01:59;6.70;;;1.23;;
22644;SDS011;11489;50.834;6.752;2022-12-29T16:04:28;8.15;;;1.15;;
22644;SDS011;11489;50.834;6.752;2022-12-29T16:07:05;4.78;;;1.17;;
22644;SDS011;11489;50.834;6.752;2022-12-29T16:09:46;5.45;;;1.17;;
22644;SDS011;11489;50.834;6.752;2022-12-29T16:14:47;6.68;;;1.13;;
22644;SDS011;11489;50.834;6.752;2022-12-29T16:17:18;5.72;;;1.08;;
22644;SDS011;11489;50.834;6.752;2022-12-29T16:19:49;7.15;;;1.27;;
22644;SDS011;11489;50.834;6.752;2022-12-29T16:25:24;3.58;;;0.93;;
22644;SDS011;11489;50.834;6.752;2022-12-29T16:27:56;6.68;;;1.40;;
22644;SDS011;11489;50.834;6.752;2022-12-29T16:30:32;6.07;;;1.10;;
22644;SDS011;11489;50.834;6.752;2022-12-29T16:33:03;8.20;;;1.30;;
22644;SDS011;11489;50.834;6.752;2022-12-29T16:35:45;4.07;;;0.98;;
22644;SDS011;11489;50.834;6.752;2022-12-29T16:38:18;6.97;;;1.58;;
22644;SDS011;11489;50.834;6.752;2022-12-29T16:40:50;8.68;;;1.33;;
22644;SDS011;11489;50.834;6.752;2022-12-29T16:43:30;7.25;;;1.38;;
22644;SDS011;11489;50.834;6.752;2022-12-29T16:48:29;5.35;;;1.00;;
22644;SDS011;11489;50.834;6.752;2022-12-29T16:51:05;5.50;;;1.23;;
22644;SDS011;11489;50.834;6.752;2022-12-29T16:53:38;4.22;;;1.08;;
22644;SDS011;11489;50.834;6.752;2022-12-29T16:56:17;6.60;;;1.20;;
22644;SDS011;11489;50.834;6.752;2022-12-29T16:58:52;8.68;;;1.23;;
22644;SDS011;11489;50.834;6.752;2022-12-29T17:01:28;7.95;;;1.60;;
22644;SDS011;11489;50.834;6.752;2022-12-29T17:03:54;9.48;;;1.50;;
22644;SDS011;11489;50.834;6.752;2022-12-29T17:06:24;5.15;;;1.25;;
22644;SDS011;11489;50.834;6.752;2022-12-29T17:08:50;5.30;;;1.13;;
22644;SDS011;11489;50.834;6.752;2022-12-29T17:11:37;6.35;;;1.05;;
22644;SDS011;11489;50.834;6.752;2022-12-29T17:17:29;9.65;;;3.13;;
22644;SDS011;11489;50.834;6.752;2022-12-29T17:19:56;11.10;;;4.30;;
22644;SDS011;11489;50.834;6.752;2022-12-29T17:22:28;12.02;;;3.85;;
22644;SDS011;11489;50.834;6.752;2022-12-29T17:24:55;13.20;;;5.35;;
22644;SDS011;11489;50.834;6.752;2022-12-29T17:27:24;44.20;;;15.40;;
22644;SDS011;11489;50.834;6.752;2022-12-29T17:29:52;32.00;;;11.00;;
22644;SDS011;11489;50.834;6.752;2022-12-29T17:32:24;14.55;;;4.50;;
22644;SDS011;11489;50.834;6.752;2022-12-29T17:34:49;9.00;;;3.00;;